sensor_id;sensor_type;location;lat;lon;timestamp;P1;durP1;ratioP1;P2;durP2;ratioP2
49472;SDS011;67434;50.956;6.918;2023-06-22T00:01:00;7.78;;;3.67;;
49472;SDS011;67434;50.956;6.918;2023-06-22T00:03:26;6.53;;;3.47;;
49472;SDS011;67434;50.956;6.918;2023-06-22T00:05:54;4.78;;;3.03;;
49472;SDS011;67434;50.956;6.918;2023-06-22T00:08:19;5.18;;;3.47;;
49472;SDS011;67434;50.956;6.918;2023-06-22T00:10:45;5.57;;;3.67;;
49472;SDS011;67434;50.956;6.918;2023-06-22T00:13:12;5.20;;;3.55;;
49472;SDS011;67434;50.956;6.918;2023-06-22T00:15:39;6.15;;;4.07;;
49472;SDS011;67434;50.956;6.918;2023-06-22T00:18:06;4.47;;;3.47;;
49472;SDS011;67434;50.956;6.918;2023-06-22T00:20:38;6.50;;;4.03;;
49472;SDS011;67434;50.956;6.918;2023-06-22T00:23:05;4.50;;;3.42;;
49472;SDS011;67434;50.956;6.918;2023-06-22T00:25:33;4.03;;;3.30;;
49472;SDS011;67434;50.956;6.918;2023-06-22T00:27:58;5.13;;;3.05;;
49472;SDS011;67434;50.956;6.918;2023-06-22T00:30:24;5.03;;;3.75;;
49472;SDS011;67434;50.956;6.918;2023-06-22T00:32:52;4.32;;;3.25;;
49472;SDS011;67434;50.956;6.918;2023-06-22T00:35:18;3.33;;;3.03;;
49472;SDS011;67434;50.956;6.918;2023-06-22T00:37:44;6.78;;;3.45;;
49472;SDS011;67434;50.956;6.918;2023-06-22T00:40:09;3.85;;;3.17;;
49472;SDS011;67434;50.956;6.918;2023-06-22T00:42:38;3.63;;;3.30;;
49472;SDS011;67434;50.956;6.918;2023-06-22T00:45:06;6.50;;;3.55;;
49472;SDS011;67434;50.956;6.918;2023-06-22T00:47:33;4.75;;;3.42;;
49472;SDS011;67434;50.956;6.918;2023-06-22T00:50:08;3.88;;;3.58;;
49472;SDS011;67434;50.956;6.918;2023-06-22T00:52:34;4.47;;;3.53;;
49472;SDS011;67434;50.956;6.918;2023-06-22T00:55:01;3.78;;;3.45;;
49472;SDS011;67434;50.956;6.918;2023-06-22T00:57:29;5.55;;;3.92;;
49472;SDS011;67434;50.956;6.918;2023-06-22T01:00:10;4.68;;;3.28;;
49472;SDS011;67434;50.956;6.918;2023-06-22T01:02:42;4.28;;;3.00;;
49472;SDS011;67434;50.956;6.918;2023-06-22T01:05:11;6.25;;;3.85;;
49472;SDS011;67434;50.956;6.918;2023-06-22T01:07:40;4.07;;;3.33;;
49472;SDS011;67434;50.956;6.918;2023-06-22T01:10:20;4.43;;;3.50;;
49472;SDS011;67434;50.956;6.918;2023-06-22T01:15:27;5.22;;;3.80;;
49472;SDS011;67434;50.956;6.918;2023-06-22T01:17:57;5.15;;;3.45;;
49472;SDS011;67434;50.956;6.918;2023-06-22T01:20:24;4.43;;;3.60;;
49472;SDS011;67434;50.956;6.918;2023-06-22T01:25:39;7.38;;;3.55;;
49472;SDS011;67434;50.956;6.918;2023-06-22T01:31:00;3.85;;;3.45;;
49472;SDS011;67434;50.956;6.918;2023-06-22T01:33:32;3.70;;;3.30;;
49472;SDS011;67434;50.956;6.918;2023-06-22T01:35:59;3.63;;;3.28;;
49472;SDS011;67434;50.956;6.918;2023-06-22T01:38:26;4.80;;;3.42;;
49472;SDS011;67434;50.956;6.918;2023-06-22T01:40:54;6.00;;;3.30;;
49472;SDS011;67434;50.956;6.918;2023-06-22T01:43:21;4.68;;;3.13;;
49472;SDS011;67434;50.956;6.918;2023-06-22T01:45:49;4.40;;;3.38;;
49472;SDS011;67434;50.956;6.918;2023-06-22T01:48:15;3.92;;;3.38;;
49472;SDS011;67434;50.956;6.918;2023-06-22T01:50:42;4.13;;;3.22;;
49472;SDS011;67434;50.956;6.918;2023-06-22T01:53:08;3.17;;;2.88;;
49472;SDS011;67434;50.956;6.918;2023-06-22T01:55:33;6.93;;;3.83;;
49472;SDS011;67434;50.956;6.918;2023-06-22T01:57:58;4.32;;;3.53;;
49472;SDS011;67434;50.956;6.918;2023-06-22T02:00:24;4.85;;;3.80;;
49472;SDS011;67434;50.956;6.918;2023-06-22T02:05:28;4.68;;;3.33;;
49472;SDS011;67434;50.956;6.918;2023-06-22T02:08:06;4.15;;;2.90;;
49472;SDS011;67434;50.956;6.918;2023-06-22T02:10:32;3.42;;;2.85;;
49472;SDS011;67434;50.956;6.918;2023-06-22T02:13:01;4.50;;;3.25;;
49472;SDS011;67434;50.956;6.918;2023-06-22T02:15:31;4.03;;;3.45;;
49472;SDS011;67434;50.956;6.918;2023-06-22T02:17:56;4.70;;;3.53;;
49472;SDS011;67434;50.956;6.918;2023-06-22T02:20:23;4.22;;;3.20;;
49472;SDS011;67434;50.956;6.918;2023-06-22T02:22:52;3.92;;;2.90;;
49472;SDS011;67434;50.956;6.918;2023-06-22T02:25:17;4.55;;;3.72;;
49472;SDS011;67434;50.956;6.918;2023-06-22T02:27:44;3.95;;;3.28;;
49472;SDS011;67434;50.956;6.918;2023-06-22T02:30:09;4.85;;;3.15;;
49472;SDS011;67434;50.956;6.918;2023-06-22T02:32:35;5.28;;;3.90;;
49472;SDS011;67434;50.956;6.918;2023-06-22T02:35:01;4.70;;;3.63;;
49472;SDS011;67434;50.956;6.918;2023-06-22T02:37:30;3.20;;;2.90;;
49472;SDS011;67434;50.956;6.918;2023-06-22T02:39:56;5.15;;;3.40;;
49472;SDS011;67434;50.956;6.918;2023-06-22T02:42:21;3.83;;;2.97;;
49472;SDS011;67434;50.956;6.918;2023-06-22T02:44:47;4.70;;;3.38;;
49472;SDS011;67434;50.956;6.918;2023-06-22T02:47:13;5.30;;;3.08;;
49472;SDS011;67434;50.956;6.918;2023-06-22T02:49:38;4.30;;;2.72;;
49472;SDS011;67434;50.956;6.918;2023-06-22T02:52:04;5.07;;;3.25;;
49472;SDS011;67434;50.956;6.918;2023-06-22T02:54:29;3.63;;;3.13;;
49472;SDS011;67434;50.956;6.918;2023-06-22T02:56:55;5.50;;;3.30;;
49472;SDS011;67434;50.956;6.918;2023-06-22T02:59:20;5.13;;;3.60;;
49472;SDS011;67434;50.956;6.918;2023-06-22T03:01:49;7.03;;;3.28;;
49472;SDS011;67434;50.956;6.918;2023-06-22T03:04:15;3.53;;;3.22;;
49472;SDS011;67434;50.956;6.918;2023-06-22T03:06:41;4.55;;;4.13;;
49472;SDS011;67434;50.956;6.918;2023-06-22T03:09:06;3.58;;;3.22;;
49472;SDS011;67434;50.956;6.918;2023-06-22T03:11:35;3.55;;;2.92;;
49472;SDS011;67434;50.956;6.918;2023-06-22T03:14:01;4.10;;;3.33;;
49472;SDS011;67434;50.956;6.918;2023-06-22T03:16:29;4.72;;;3.38;;
49472;SDS011;67434;50.956;6.918;2023-06-22T03:18:55;4.22;;;3.13;;
49472;SDS011;67434;50.956;6.918;2023-06-22T03:21:22;4.90;;;3.15;;
49472;SDS011;67434;50.956;6.918;2023-06-22T03:23:48;4.75;;;3.35;;
49472;SDS011;67434;50.956;6.918;2023-06-22T03:26:16;6.28;;;3.25;;
49472;SDS011;67434;50.956;6.918;2023-06-22T03:28:42;5.63;;;3.97;;
49472;SDS011;67434;50.956;6.918;2023-06-22T03:31:07;4.53;;;3.42;;
49472;SDS011;67434;50.956;6.918;2023-06-22T03:33:33;5.32;;;4.18;;
49472;SDS011;67434;50.956;6.918;2023-06-22T03:35:58;4.28;;;3.88;;
49472;SDS011;67434;50.956;6.918;2023-06-22T03:38:23;7.22;;;4.00;;
49472;SDS011;67434;50.956;6.918;2023-06-22T03:40:49;5.93;;;3.80;;
49472;SDS011;67434;50.956;6.918;2023-06-22T03:43:14;4.15;;;2.95;;
49472;SDS011;67434;50.956;6.918;2023-06-22T03:45:40;5.13;;;3.05;;
49472;SDS011;67434;50.956;6.918;2023-06-22T03:48:05;5.18;;;3.75;;
49472;SDS011;67434;50.956;6.918;2023-06-22T03:50:31;3.90;;;3.25;;
49472;SDS011;67434;50.956;6.918;2023-06-22T03:52:56;4.68;;;3.15;;
49472;SDS011;67434;50.956;6.918;2023-06-22T03:55:22;4.00;;;3.60;;
49472;SDS011;67434;50.956;6.918;2023-06-22T03:57:47;4.10;;;3.70;;
49472;SDS011;67434;50.956;6.918;2023-06-22T04:00:13;3.90;;;3.60;;
49472;SDS011;67434;50.956;6.918;2023-06-22T04:02:40;5.55;;;3.80;;
49472;SDS011;67434;50.956;6.918;2023-06-22T04:05:07;4.25;;;3.78;;
49472;SDS011;67434;50.956;6.918;2023-06-22T04:07:34;4.57;;;3.83;;
49472;SDS011;67434;50.956;6.918;2023-06-22T04:10:02;4.07;;;3.67;;
49472;SDS011;67434;50.956;6.918;2023-06-22T04:12:28;5.28;;;3.97;;
49472;SDS011;67434;50.956;6.918;2023-06-22T04:14:54;4.60;;;3.88;;
49472;SDS011;67434;50.956;6.918;2023-06-22T04:17:19;5.57;;;4.15;;
49472;SDS011;67434;50.956;6.918;2023-06-22T04:19:45;4.78;;;3.90;;
49472;SDS011;67434;50.956;6.918;2023-06-22T04:22:10;5.72;;;4.20;;
49472;SDS011;67434;50.956;6.918;2023-06-22T04:24:36;4.75;;;4.25;;
49472;SDS011;67434;50.956;6.918;2023-06-22T04:27:02;4.90;;;4.28;;
49472;SDS011;67434;50.956;6.918;2023-06-22T04:29:28;5.18;;;4.15;;
49472;SDS011;67434;50.956;6.918;2023-06-22T04:31:57;5.65;;;5.05;;
49472;SDS011;67434;50.956;6.918;2023-06-22T04:34:28;6.43;;;5.22;;
49472;SDS011;67434;50.956;6.918;2023-06-22T04:36:54;7.40;;;5.30;;
49472;SDS011;67434;50.956;6.918;2023-06-22T04:39:20;5.35;;;4.65;;
49472;SDS011;67434;50.956;6.918;2023-06-22T04:41:46;5.68;;;5.18;;
49472;SDS011;67434;50.956;6.918;2023-06-22T04:44:12;6.47;;;4.70;;
49472;SDS011;67434;50.956;6.918;2023-06-22T04:46:38;6.00;;;5.35;;
49472;SDS011;67434;50.956;6.918;2023-06-22T04:49:06;6.38;;;5.15;;
49472;SDS011;67434;50.956;6.918;2023-06-22T04:51:36;5.95;;;5.18;;
49472;SDS011;67434;50.956;6.918;2023-06-22T04:54:03;7.28;;;5.43;;
49472;SDS011;67434;50.956;6.918;2023-06-22T04:56:30;12.18;;;5.78;;
49472;SDS011;67434;50.956;6.918;2023-06-22T04:58:56;8.43;;;7.05;;
49472;SDS011;67434;50.956;6.918;2023-06-22T05:01:22;6.38;;;5.78;;
49472;SDS011;67434;50.956;6.918;2023-06-22T05:03:48;9.95;;;5.88;;
49472;SDS011;67434;50.956;6.918;2023-06-22T05:06:13;8.10;;;6.88;;
49472;SDS011;67434;50.956;6.918;2023-06-22T05:08:39;7.28;;;6.32;;
49472;SDS011;67434;50.956;6.918;2023-06-22T05:11:05;7.70;;;6.18;;
49472;SDS011;67434;50.956;6.918;2023-06-22T05:13:31;7.38;;;6.60;;
49472;SDS011;67434;50.956;6.918;2023-06-22T05:15:57;14.27;;;7.60;;
49472;SDS011;67434;50.956;6.918;2023-06-22T05:18:27;9.07;;;6.85;;
49472;SDS011;67434;50.956;6.918;2023-06-22T05:20:54;8.00;;;7.20;;
49472;SDS011;67434;50.956;6.918;2023-06-22T05:23:19;7.82;;;6.13;;
49472;SDS011;67434;50.956;6.918;2023-06-22T05:25:45;7.82;;;6.35;;
49472;SDS011;67434;50.956;6.918;2023-06-22T05:28:10;8.80;;;6.78;;
49472;SDS011;67434;50.956;6.918;2023-06-22T05:30:36;7.72;;;6.22;;
49472;SDS011;67434;50.956;6.918;2023-06-22T05:33:02;7.00;;;6.30;;
49472;SDS011;67434;50.956;6.918;2023-06-22T05:35:27;8.50;;;6.25;;
49472;SDS011;67434;50.956;6.918;2023-06-22T05:37:53;9.63;;;6.75;;
49472;SDS011;67434;50.956;6.918;2023-06-22T05:40:18;6.47;;;5.88;;
49472;SDS011;67434;50.956;6.918;2023-06-22T05:42:44;6.97;;;5.85;;
49472;SDS011;67434;50.956;6.918;2023-06-22T05:45:09;7.93;;;6.57;;
49472;SDS011;67434;50.956;6.918;2023-06-22T05:47:37;9.73;;;6.75;;
49472;SDS011;67434;50.956;6.918;2023-06-22T05:50:03;7.75;;;6.38;;
49472;SDS011;67434;50.956;6.918;2023-06-22T05:52:32;7.55;;;6.25;;
49472;SDS011;67434;50.956;6.918;2023-06-22T05:54:57;10.23;;;6.72;;
49472;SDS011;67434;50.956;6.918;2023-06-22T05:57:23;7.60;;;6.28;;
49472;SDS011;67434;50.956;6.918;2023-06-22T05:59:49;7.55;;;6.65;;
49472;SDS011;67434;50.956;6.918;2023-06-22T06:02:17;9.10;;;6.32;;
49472;SDS011;67434;50.956;6.918;2023-06-22T06:04:42;10.15;;;6.85;;
49472;SDS011;67434;50.956;6.918;2023-06-22T06:07:08;8.00;;;6.55;;
49472;SDS011;67434;50.956;6.918;2023-06-22T06:09:33;6.97;;;6.22;;
49472;SDS011;67434;50.956;6.918;2023-06-22T06:11:58;8.23;;;7.13;;
49472;SDS011;67434;50.956;6.918;2023-06-22T06:14:24;8.30;;;6.07;;
49472;SDS011;67434;50.956;6.918;2023-06-22T06:16:49;6.70;;;6.00;;
49472;SDS011;67434;50.956;6.918;2023-06-22T06:19:15;11.50;;;6.38;;
49472;SDS011;67434;50.956;6.918;2023-06-22T06:21:40;8.27;;;5.75;;
49472;SDS011;67434;50.956;6.918;2023-06-22T06:24:06;8.70;;;6.03;;
49472;SDS011;67434;50.956;6.918;2023-06-22T06:26:31;8.05;;;6.10;;
49472;SDS011;67434;50.956;6.918;2023-06-22T06:28:59;10.32;;;6.50;;
49472;SDS011;67434;50.956;6.918;2023-06-22T06:31:25;7.25;;;6.40;;
49472;SDS011;67434;50.956;6.918;2023-06-22T06:33:53;10.40;;;6.28;;
49472;SDS011;67434;50.956;6.918;2023-06-22T06:36:19;8.38;;;5.95;;
49472;SDS011;67434;50.956;6.918;2023-06-22T06:38:45;8.07;;;6.30;;
49472;SDS011;67434;50.956;6.918;2023-06-22T06:41:15;10.85;;;6.40;;
49472;SDS011;67434;50.956;6.918;2023-06-22T06:43:41;9.13;;;6.10;;
49472;SDS011;67434;50.956;6.918;2023-06-22T06:46:08;9.25;;;5.68;;
49472;SDS011;67434;50.956;6.918;2023-06-22T06:48:34;7.07;;;6.13;;
49472;SDS011;67434;50.956;6.918;2023-06-22T06:51:00;11.32;;;6.90;;
49472;SDS011;67434;50.956;6.918;2023-06-22T06:53:25;11.35;;;6.45;;
49472;SDS011;67434;50.956;6.918;2023-06-22T06:55:51;9.85;;;6.57;;
49472;SDS011;67434;50.956;6.918;2023-06-22T06:58:16;8.60;;;6.75;;
49472;SDS011;67434;50.956;6.918;2023-06-22T07:00:41;7.50;;;6.57;;
49472;SDS011;67434;50.956;6.918;2023-06-22T07:03:08;6.32;;;5.72;;
49472;SDS011;67434;50.956;6.918;2023-06-22T07:05:35;9.57;;;6.88;;
49472;SDS011;67434;50.956;6.918;2023-06-22T07:08:01;7.93;;;6.25;;
49472;SDS011;67434;50.956;6.918;2023-06-22T07:10:26;9.27;;;6.53;;
49472;SDS011;67434;50.956;6.918;2023-06-22T07:12:52;6.65;;;5.95;;
49472;SDS011;67434;50.956;6.918;2023-06-22T07:15:17;8.52;;;6.32;;
49472;SDS011;67434;50.956;6.918;2023-06-22T07:17:43;9.18;;;6.40;;
49472;SDS011;67434;50.956;6.918;2023-06-22T07:20:08;9.05;;;5.70;;
49472;SDS011;67434;50.956;6.918;2023-06-22T07:22:36;8.35;;;6.32;;
49472;SDS011;67434;50.956;6.918;2023-06-22T07:25:02;27.63;;;6.03;;
49472;SDS011;67434;50.956;6.918;2023-06-22T07:27:38;9.98;;;6.40;;
49472;SDS011;67434;50.956;6.918;2023-06-22T07:30:08;8.05;;;6.18;;
49472;SDS011;67434;50.956;6.918;2023-06-22T07:32:34;6.13;;;5.53;;
49472;SDS011;67434;50.956;6.918;2023-06-22T07:35:00;6.78;;;5.60;;
49472;SDS011;67434;50.956;6.918;2023-06-22T07:37:27;7.45;;;6.72;;
49472;SDS011;67434;50.956;6.918;2023-06-22T07:39:53;8.73;;;6.13;;
49472;SDS011;67434;50.956;6.918;2023-06-22T07:42:26;6.93;;;6.20;;
49472;SDS011;67434;50.956;6.918;2023-06-22T07:44:51;6.72;;;5.75;;
49472;SDS011;67434;50.956;6.918;2023-06-22T07:47:18;6.88;;;5.57;;
49472;SDS011;67434;50.956;6.918;2023-06-22T07:49:44;12.02;;;7.03;;
49472;SDS011;67434;50.956;6.918;2023-06-22T07:52:10;8.43;;;6.07;;
49472;SDS011;67434;50.956;6.918;2023-06-22T07:54:36;10.32;;;6.03;;
49472;SDS011;67434;50.956;6.918;2023-06-22T07:57:01;9.02;;;6.45;;
49472;SDS011;67434;50.956;6.918;2023-06-22T07:59:27;6.95;;;6.07;;
49472;SDS011;67434;50.956;6.918;2023-06-22T08:01:52;7.05;;;6.25;;
49472;SDS011;67434;50.956;6.918;2023-06-22T08:04:17;8.68;;;7.00;;
49472;SDS011;67434;50.956;6.918;2023-06-22T08:06:43;15.20;;;6.57;;
49472;SDS011;67434;50.956;6.918;2023-06-22T08:09:08;8.15;;;6.93;;
49472;SDS011;67434;50.956;6.918;2023-06-22T08:11:34;9.07;;;5.97;;
49472;SDS011;67434;50.956;6.918;2023-06-22T08:13:59;6.82;;;6.15;;
49472;SDS011;67434;50.956;6.918;2023-06-22T08:16:25;8.57;;;6.95;;
49472;SDS011;67434;50.956;6.918;2023-06-22T08:18:50;7.75;;;5.85;;
49472;SDS011;67434;50.956;6.918;2023-06-22T08:21:16;8.82;;;6.22;;
49472;SDS011;67434;50.956;6.918;2023-06-22T08:23:42;7.75;;;6.22;;
49472;SDS011;67434;50.956;6.918;2023-06-22T08:26:07;7.68;;;6.32;;
49472;SDS011;67434;50.956;6.918;2023-06-22T08:28:32;7.18;;;5.55;;
49472;SDS011;67434;50.956;6.918;2023-06-22T08:30:59;6.43;;;5.82;;
49472;SDS011;67434;50.956;6.918;2023-06-22T08:33:25;7.50;;;5.85;;
49472;SDS011;67434;50.956;6.918;2023-06-22T08:35:57;7.82;;;5.97;;
49472;SDS011;67434;50.956;6.918;2023-06-22T08:38:23;7.47;;;6.63;;
49472;SDS011;67434;50.956;6.918;2023-06-22T08:40:48;7.97;;;5.85;;
49472;SDS011;67434;50.956;6.918;2023-06-22T08:43:14;10.95;;;6.60;;
49472;SDS011;67434;50.956;6.918;2023-06-22T08:45:39;10.00;;;8.00;;
49472;SDS011;67434;50.956;6.918;2023-06-22T08:48:05;8.77;;;6.90;;
49472;SDS011;67434;50.956;6.918;2023-06-22T08:50:30;7.63;;;6.43;;
49472;SDS011;67434;50.956;6.918;2023-06-22T08:52:56;7.63;;;6.82;;
49472;SDS011;67434;50.956;6.918;2023-06-22T08:55:21;9.50;;;6.32;;
49472;SDS011;67434;50.956;6.918;2023-06-22T08:57:46;7.28;;;5.93;;
49472;SDS011;67434;50.956;6.918;2023-06-22T09:00:12;13.43;;;7.78;;
49472;SDS011;67434;50.956;6.918;2023-06-22T09:02:44;7.43;;;6.72;;
49472;SDS011;67434;50.956;6.918;2023-06-22T09:05:09;57.67;;;31.08;;
49472;SDS011;67434;50.956;6.918;2023-06-22T09:07:35;30.52;;;18.67;;
49472;SDS011;67434;50.956;6.918;2023-06-22T09:10:01;10.80;;;8.10;;
49472;SDS011;67434;50.956;6.918;2023-06-22T09:12:26;8.45;;;6.18;;
49472;SDS011;67434;50.956;6.918;2023-06-22T09:14:52;6.70;;;6.00;;
49472;SDS011;67434;50.956;6.918;2023-06-22T09:17:18;6.97;;;6.28;;
49472;SDS011;67434;50.956;6.918;2023-06-22T09:19:44;6.93;;;5.63;;
49472;SDS011;67434;50.956;6.918;2023-06-22T09:22:09;7.65;;;5.88;;
49472;SDS011;67434;50.956;6.918;2023-06-22T09:24:35;7.18;;;5.22;;
49472;SDS011;67434;50.956;6.918;2023-06-22T09:27:00;6.63;;;5.68;;
49472;SDS011;67434;50.956;6.918;2023-06-22T09:29:26;6.53;;;5.80;;
49472;SDS011;67434;50.956;6.918;2023-06-22T09:31:51;8.20;;;5.30;;
49472;SDS011;67434;50.956;6.918;2023-06-22T09:34:18;6.65;;;5.68;;
49472;SDS011;67434;50.956;6.918;2023-06-22T09:36:45;6.32;;;5.55;;
49472;SDS011;67434;50.956;6.918;2023-06-22T09:39:11;5.95;;;5.22;;
49472;SDS011;67434;50.956;6.918;2023-06-22T09:41:36;6.43;;;5.78;;
49472;SDS011;67434;50.956;6.918;2023-06-22T09:44:02;8.50;;;5.28;;
49472;SDS011;67434;50.956;6.918;2023-06-22T09:46:27;6.13;;;5.53;;
49472;SDS011;67434;50.956;6.918;2023-06-22T09:48:53;6.57;;;5.93;;
49472;SDS011;67434;50.956;6.918;2023-06-22T09:51:19;7.15;;;5.38;;
49472;SDS011;67434;50.956;6.918;2023-06-22T09:53:46;10.57;;;5.05;;
49472;SDS011;67434;50.956;6.918;2023-06-22T09:56:12;8.77;;;5.30;;
49472;SDS011;67434;50.956;6.918;2023-06-22T09:58:40;6.95;;;5.72;;
49472;SDS011;67434;50.956;6.918;2023-06-22T10:01:09;7.60;;;5.50;;
49472;SDS011;67434;50.956;6.918;2023-06-22T10:03:35;6.82;;;4.57;;
49472;SDS011;67434;50.956;6.918;2023-06-22T10:06:01;6.13;;;5.45;;
49472;SDS011;67434;50.956;6.918;2023-06-22T10:08:27;7.93;;;5.10;;
49472;SDS011;67434;50.956;6.918;2023-06-22T10:10:53;6.53;;;5.40;;
49472;SDS011;67434;50.956;6.918;2023-06-22T10:13:18;9.25;;;5.32;;
49472;SDS011;67434;50.956;6.918;2023-06-22T10:15:44;13.98;;;6.00;;
49472;SDS011;67434;50.956;6.918;2023-06-22T10:18:15;27.52;;;12.30;;
49472;SDS011;67434;50.956;6.918;2023-06-22T10:20:41;33.67;;;18.85;;
49472;SDS011;67434;50.956;6.918;2023-06-22T10:23:06;10.77;;;8.15;;
49472;SDS011;67434;50.956;6.918;2023-06-22T10:25:32;11.75;;;7.43;;
49472;SDS011;67434;50.956;6.918;2023-06-22T10:27:57;9.50;;;7.03;;
49472;SDS011;67434;50.956;6.918;2023-06-22T10:30:23;7.25;;;6.10;;
49472;SDS011;67434;50.956;6.918;2023-06-22T10:32:48;7.97;;;6.65;;
49472;SDS011;67434;50.956;6.918;2023-06-22T10:35:14;11.15;;;5.85;;
49472;SDS011;67434;50.956;6.918;2023-06-22T10:37:44;11.15;;;6.63;;
49472;SDS011;67434;50.956;6.918;2023-06-22T10:40:14;9.15;;;6.90;;
49472;SDS011;67434;50.956;6.918;2023-06-22T10:42:42;8.48;;;6.85;;
49472;SDS011;67434;50.956;6.918;2023-06-22T10:45:07;8.50;;;6.43;;
49472;SDS011;67434;50.956;6.918;2023-06-22T10:47:33;7.00;;;6.35;;
49472;SDS011;67434;50.956;6.918;2023-06-22T10:49:59;10.32;;;8.27;;
49472;SDS011;67434;50.956;6.918;2023-06-22T10:52:25;8.18;;;7.03;;
49472;SDS011;67434;50.956;6.918;2023-06-22T10:54:50;9.82;;;7.25;;
49472;SDS011;67434;50.956;6.918;2023-06-22T10:57:15;12.00;;;8.77;;
49472;SDS011;67434;50.956;6.918;2023-06-22T10:59:41;12.90;;;8.55;;
49472;SDS011;67434;50.956;6.918;2023-06-22T11:02:06;15.02;;;8.48;;
49472;SDS011;67434;50.956;6.918;2023-06-22T11:04:32;13.55;;;9.48;;
49472;SDS011;67434;50.956;6.918;2023-06-22T11:06:57;9.82;;;8.32;;
49472;SDS011;67434;50.956;6.918;2023-06-22T11:09:23;12.18;;;8.35;;
49472;SDS011;67434;50.956;6.918;2023-06-22T11:11:49;9.52;;;7.65;;
49472;SDS011;67434;50.956;6.918;2023-06-22T11:14:16;10.05;;;8.27;;
49472;SDS011;67434;50.956;6.918;2023-06-22T11:16:41;16.75;;;9.13;;
49472;SDS011;67434;50.956;6.918;2023-06-22T11:19:07;15.25;;;9.05;;
49472;SDS011;67434;50.956;6.918;2023-06-22T11:21:32;13.30;;;9.73;;
49472;SDS011;67434;50.956;6.918;2023-06-22T11:23:58;12.55;;;8.82;;
49472;SDS011;67434;50.956;6.918;2023-06-22T11:26:25;14.40;;;9.32;;
49472;SDS011;67434;50.956;6.918;2023-06-22T11:28:52;10.55;;;8.30;;
49472;SDS011;67434;50.956;6.918;2023-06-22T11:31:18;18.20;;;10.15;;
49472;SDS011;67434;50.956;6.918;2023-06-22T11:33:43;13.63;;;10.05;;
49472;SDS011;67434;50.956;6.918;2023-06-22T11:36:11;20.80;;;12.02;;
49472;SDS011;67434;50.956;6.918;2023-06-22T11:38:36;21.25;;;14.05;;
49472;SDS011;67434;50.956;6.918;2023-06-22T11:41:04;16.02;;;11.55;;
49472;SDS011;67434;50.956;6.918;2023-06-22T11:43:30;16.48;;;10.73;;
49472;SDS011;67434;50.956;6.918;2023-06-22T11:45:56;11.00;;;9.15;;
49472;SDS011;67434;50.956;6.918;2023-06-22T11:48:23;17.20;;;10.52;;
49472;SDS011;67434;50.956;6.918;2023-06-22T11:50:49;14.20;;;9.98;;
49472;SDS011;67434;50.956;6.918;2023-06-22T11:53:15;16.17;;;11.02;;
49472;SDS011;67434;50.956;6.918;2023-06-22T11:55:42;13.65;;;10.75;;
49472;SDS011;67434;50.956;6.918;2023-06-22T11:58:08;11.93;;;9.57;;
49472;SDS011;67434;50.956;6.918;2023-06-22T12:00:33;14.05;;;9.05;;
49472;SDS011;67434;50.956;6.918;2023-06-22T12:02:59;14.38;;;10.60;;
49472;SDS011;67434;50.956;6.918;2023-06-22T12:05:24;17.08;;;11.32;;
49472;SDS011;67434;50.956;6.918;2023-06-22T12:07:50;16.23;;;11.48;;
49472;SDS011;67434;50.956;6.918;2023-06-22T12:10:18;17.25;;;13.43;;
49472;SDS011;67434;50.956;6.918;2023-06-22T12:12:43;16.63;;;13.07;;
49472;SDS011;67434;50.956;6.918;2023-06-22T12:15:09;14.77;;;11.63;;
49472;SDS011;67434;50.956;6.918;2023-06-22T12:17:35;15.20;;;11.43;;
49472;SDS011;67434;50.956;6.918;2023-06-22T12:20:01;15.75;;;11.60;;
49472;SDS011;67434;50.956;6.918;2023-06-22T12:22:31;13.00;;;10.45;;
49472;SDS011;67434;50.956;6.918;2023-06-22T12:24:57;17.08;;;10.80;;
49472;SDS011;67434;50.956;6.918;2023-06-22T12:27:22;12.75;;;10.02;;
49472;SDS011;67434;50.956;6.918;2023-06-22T12:29:48;10.90;;;8.77;;
49472;SDS011;67434;50.956;6.918;2023-06-22T12:32:13;12.07;;;10.25;;
49472;SDS011;67434;50.956;6.918;2023-06-22T12:34:39;12.93;;;9.80;;
49472;SDS011;67434;50.956;6.918;2023-06-22T12:37:06;13.18;;;9.68;;
49472;SDS011;67434;50.956;6.918;2023-06-22T12:39:32;11.48;;;9.48;;
49472;SDS011;67434;50.956;6.918;2023-06-22T12:41:57;10.80;;;9.27;;
49472;SDS011;67434;50.956;6.918;2023-06-22T12:44:23;11.13;;;9.52;;
49472;SDS011;67434;50.956;6.918;2023-06-22T12:46:48;12.02;;;9.15;;
49472;SDS011;67434;50.956;6.918;2023-06-22T12:49:14;16.17;;;10.02;;
49472;SDS011;67434;50.956;6.918;2023-06-22T12:51:40;14.10;;;9.35;;
49472;SDS011;67434;50.956;6.918;2023-06-22T12:54:10;11.15;;;9.43;;
49472;SDS011;67434;50.956;6.918;2023-06-22T12:56:36;10.60;;;8.50;;
49472;SDS011;67434;50.956;6.918;2023-06-22T12:59:02;11.10;;;8.50;;
49472;SDS011;67434;50.956;6.918;2023-06-22T13:01:29;12.45;;;9.45;;
49472;SDS011;67434;50.956;6.918;2023-06-22T13:03:58;11.52;;;9.27;;
49472;SDS011;67434;50.956;6.918;2023-06-22T13:06:24;9.65;;;8.52;;
49472;SDS011;67434;50.956;6.918;2023-06-22T13:08:49;13.18;;;9.77;;
49472;SDS011;67434;50.956;6.918;2023-06-22T13:11:15;10.95;;;9.32;;
49472;SDS011;67434;50.956;6.918;2023-06-22T13:13:40;10.60;;;8.80;;
49472;SDS011;67434;50.956;6.918;2023-06-22T13:16:06;9.98;;;8.13;;
49472;SDS011;67434;50.956;6.918;2023-06-22T13:18:32;8.65;;;7.78;;
49472;SDS011;67434;50.956;6.918;2023-06-22T13:20:59;11.50;;;8.05;;
49472;SDS011;67434;50.956;6.918;2023-06-22T13:23:25;11.30;;;7.68;;
49472;SDS011;67434;50.956;6.918;2023-06-22T13:25:50;8.98;;;8.07;;
49472;SDS011;67434;50.956;6.918;2023-06-22T13:28:16;8.75;;;7.85;;
49472;SDS011;67434;50.956;6.918;2023-06-22T13:30:41;9.75;;;8.07;;
49472;SDS011;67434;50.956;6.918;2023-06-22T13:33:08;9.48;;;7.97;;
49472;SDS011;67434;50.956;6.918;2023-06-22T13:35:34;9.57;;;7.03;;
49472;SDS011;67434;50.956;6.918;2023-06-22T13:38:00;8.93;;;7.30;;
49472;SDS011;67434;50.956;6.918;2023-06-22T13:40:26;9.40;;;7.47;;
49472;SDS011;67434;50.956;6.918;2023-06-22T13:42:51;11.32;;;7.53;;
49472;SDS011;67434;50.956;6.918;2023-06-22T13:45:17;7.90;;;6.22;;
49472;SDS011;67434;50.956;6.918;2023-06-22T13:47:44;11.85;;;7.43;;
49472;SDS011;67434;50.956;6.918;2023-06-22T13:50:09;8.02;;;6.70;;
49472;SDS011;67434;50.956;6.918;2023-06-22T13:52:35;7.65;;;6.45;;
49472;SDS011;67434;50.956;6.918;2023-06-22T13:55:01;7.15;;;6.03;;
49472;SDS011;67434;50.956;6.918;2023-06-22T13:57:27;6.25;;;5.65;;
49472;SDS011;67434;50.956;6.918;2023-06-22T13:59:52;6.15;;;5.22;;
49472;SDS011;67434;50.956;6.918;2023-06-22T14:02:18;6.03;;;5.10;;
49472;SDS011;67434;50.956;6.918;2023-06-22T14:04:43;4.28;;;3.88;;
49472;SDS011;67434;50.956;6.918;2023-06-22T14:07:08;4.40;;;4.00;;
49472;SDS011;67434;50.956;6.918;2023-06-22T14:09:34;4.88;;;4.03;;
49472;SDS011;67434;50.956;6.918;2023-06-22T14:12:02;4.38;;;3.97;;
49472;SDS011;67434;50.956;6.918;2023-06-22T14:14:30;5.63;;;3.60;;
49472;SDS011;67434;50.956;6.918;2023-06-22T14:16:55;6.18;;;4.72;;
49472;SDS011;67434;50.956;6.918;2023-06-22T14:19:21;6.00;;;4.30;;
49472;SDS011;67434;50.956;6.918;2023-06-22T14:21:46;6.25;;;5.03;;
49472;SDS011;67434;50.956;6.918;2023-06-22T14:24:11;8.00;;;4.68;;
49472;SDS011;67434;50.956;6.918;2023-06-22T14:26:37;5.35;;;4.85;;
49472;SDS011;67434;50.956;6.918;2023-06-22T14:29:02;4.68;;;4.28;;
49472;SDS011;67434;50.956;6.918;2023-06-22T14:31:29;6.68;;;4.22;;
49472;SDS011;67434;50.956;6.918;2023-06-22T14:33:54;4.30;;;3.90;;
49472;SDS011;67434;50.956;6.918;2023-06-22T14:36:20;6.68;;;4.25;;
49472;SDS011;67434;50.956;6.918;2023-06-22T14:38:46;5.13;;;4.13;;
49472;SDS011;67434;50.956;6.918;2023-06-22T14:41:12;5.50;;;4.15;;
49472;SDS011;67434;50.956;6.918;2023-06-22T14:43:38;5.13;;;4.55;;
49472;SDS011;67434;50.956;6.918;2023-06-22T14:46:03;5.20;;;4.70;;
49472;SDS011;67434;50.956;6.918;2023-06-22T14:48:28;4.70;;;4.30;;